Terminal Aerodrome Forecast
Issued by NWS Twin Cities, MN

Home | Current Version | Previous Version | Graphics & Text | Print | Product List | Glossary On
Versions: 1 2 3 4 5 6 7 8 9 10 11 12 13 14 15 16
735
FTUS43 KMPX 200520
TAFSTC
TAF
KSTC 200520Z 2006/2106 16005KT P6SM SKC WS020/22040KT
     FM201400 17008KT P6SM SKC
     FM201600 18013G20KT P6SM SKC
     FM201900 17017G27KT P6SM SKC
     FM210300 17012G24KT P6SM BKN110=

USA.gov is the U.S. government's official web portal to all federal, state and local government web resources and services.